This is the latest recevied weather packets stored in our database for station/object NO9B. If no packets are shown the sender has not sent any weather packets the latest 1 day(s).
| Time | Temp. | Humidity | Pressure | Rain* | Wind** | Luminosity | Snow |
|---|---|---|---|---|---|---|---|
| 1778021830 | 13.89° C | 29% | 1009.2 hPa | 0 mm | 0.89 m/s, 258° | 47 W/m² | - |
| 1778021527 | 13.89° C | 29% | 1009.2 hPa | 0 mm | 0.89 m/s, 311° | 40 W/m² | - |
| 1778021222 | 14.44° C | 28% | 1009.1 hPa | 0 mm | 1.34 m/s, 216° | 80 W/m² | - |
| 1778020921 | 14.44° C | 29% | 1009.2 hPa | 0 mm | 1.34 m/s, 302° | 79 W/m² | - |
| 1778020618 | 14.44° C | 28% | 1008.8 hPa | 0 mm | 1.79 m/s, 213° | 73 W/m² | - |
| 1778020313 | 14.44° C | 30% | 1008.7 hPa | 0 mm | 0.89 m/s, 273° | 68 W/m² | - |
| 1778020010 | 14.44° C | 28% | 1008.9 hPa | 0 mm | 0.89 m/s, 247° | 104 W/m² | - |
| 1778019706 | 14.44° C | 27% | 1009 hPa | 0 mm | 2.24 m/s, 267° | 160 W/m² | - |
| 1778019403 | 14.44° C | 27% | 1008.9 hPa | 0 mm | 0.89 m/s, 317° | 154 W/m² | - |
| 1778019100 | 14.44° C | 29% | 1008.8 hPa | 0 mm | 0.89 m/s, 349° | 81 W/m² | - |
| 1778018797 | 13.89° C | 30% | 1008.8 hPa | 0 mm | 1.34 m/s, 250° | 182 W/m² | - |
| 1778018495 | 13.89° C | 28% | 1009 hPa | 0 mm | 1.79 m/s, 241° | 91 W/m² | - |
| 1778018192 | 13.89° C | 28% | 1009 hPa | 0 mm | 2.24 m/s, 226° | 67 W/m² | - |
| 1778017890 | 14.44° C | 27% | 1009 hPa | 0 mm | 1.34 m/s, 294° | 72 W/m² | - |
| 1778017588 | 14.44° C | 26% | 1008.8 hPa | 0 mm | 2.68 m/s, 188° | 121 W/m² | - |
| 1778017285 | 13.89° C | 28% | 1008.7 hPa | 0 mm | 0.89 m/s, 267° | 177 W/m² | - |
| 1778016983 | 14.44° C | 27% | 1008.7 hPa | 0 mm | 0.45 m/s, 231° | 239 W/m² | - |
| 1778016679 | 15° C | 28% | 1008.8 hPa | 0 mm | 1.34 m/s, 233° | 232 W/m² | - |
| 1778016375 | 14.44° C | 30% | 1008.9 hPa | 0 mm | 1.34 m/s, 359° | 172 W/m² | - |
| 1778016073 | 14.44° C | 29% | 1008.7 hPa | 0 mm | 2.24 m/s, 209° | 507 W/m² | - |
| 1778015769 | 14.44° C | 29% | 1008.5 hPa | 0 mm | 1.34 m/s, 210° | 232 W/m² | - |
| 1778015467 | 14.44° C | 32% | 1008.8 hPa | 0 mm | 0 m/s | 158 W/m² | - |
| 1778015163 | 14.44° C | 32% | 1008.8 hPa | 0 mm | 0.89 m/s, 271° | 178 W/m² | - |
| 1778014860 | 13.89° C | 31% | 1008.9 hPa | 0 mm | 1.34 m/s, 279° | 202 W/m² | - |
| 1778014558 | 13.89° C | 30% | 1009 hPa | 0 mm | 1.34 m/s, 285° | 252 W/m² | - |
* Rain latest hour (hover to see other rain measurements)
** Current wind speed in m/s (hover to see current wind gust speed)